Time;durP1;ratioP1;P1;durP2;ratioP2;P2;SDS_P1;SDS_P2;PMS_P1;PMS_P2;Temp;Humidity;BMP_temperature;BMP_pressure;BME280_temperature;BME280_humidity;BME280_pressure;Samples;Min_cycle;Max_cycle;Signal;HPM_P1;HPM_P2
2023/05/23 04:05:16;;;;;;;16.67;12.90;;;17.10;99.90;;;;;;5692764;23;20481;-71
2023/05/23 04:07:42;;;;;;;18.27;13.57;;;17.10;99.90;;;;;;4976861;28;20450;-70
2023/05/23 04:10:08;;;;;;;19.30;14.60;;;17.10;99.90;;;;;;4987282;28;20455;-70
2023/05/23 04:12:35;;;;;;;22.40;14.40;;;17.00;99.90;;;;;;4976198;28;20422;-69
2023/05/23 04:15:02;;;;;;;16.67;14.27;;;17.00;99.90;;;;;;4976087;28;20521;-70
2023/05/23 04:17:30;;;;;;;17.40;13.00;;;17.00;99.90;;;;;;4976390;28;20419;-71
2023/05/23 04:19:56;;;;;;;20.23;14.30;;;17.10;99.90;;;;;;4976211;28;20390;-69
2023/05/23 04:22:21;;;;;;;21.80;14.70;;;17.10;99.90;;;;;;4976089;28;20422;-71
2023/05/23 04:24:47;;;;;;;21.53;14.10;;;17.10;99.90;;;;;;4975659;28;20385;-72
2023/05/23 04:27:13;;;;;;;21.03;14.33;;;17.10;99.90;;;;;;4976094;28;20257;-70
2023/05/23 04:29:38;;;;;;;29.40;18.43;;;17.10;99.90;;;;;;4958790;28;20210;-71
2023/05/23 04:32:05;;;;;;;26.37;15.77;;;17.10;99.90;;;;;;4975817;28;20646;-71
2023/05/23 04:34:34;;;;;;;28.00;17.27;;;17.20;99.90;;;;;;4975014;28;20180;-71
2023/05/23 04:37:03;;;;;;;18.47;13.13;;;17.20;99.90;;;;;;4975014;28;20937;-70
2023/05/23 04:39:29;;;;;;;25.20;16.97;;;17.20;99.90;;;;;;4975794;28;20901;-72
2023/05/23 04:41:55;;;;;;;22.93;15.40;;;17.30;99.90;;;;;;4975920;28;20422;-71
2023/05/23 04:44:25;;;;;;;22.10;14.37;;;17.30;99.90;;;;;;4975259;28;20440;-70
2023/05/23 04:46:51;;;;;;;19.50;14.10;;;17.40;99.90;;;;;;4975406;28;20436;-70
2023/05/23 04:49:17;;;;;;;24.83;16.30;;;17.40;99.90;;;;;;4975426;28;20452;-71
2023/05/23 04:51:43;;;;;;;20.60;14.23;;;17.40;99.90;;;;;;4958054;28;20271;-70
2023/05/23 04:54:08;;;;;;;18.70;14.67;;;17.50;99.90;;;;;;4975124;28;20180;-71
2023/05/23 04:56:34;;;;;;;20.63;14.10;;;17.50;99.90;;;;;;4975504;28;20456;-70
2023/05/23 04:59:00;;;;;;;24.10;15.83;;;17.60;99.90;;;;;;4975075;28;20173;-71
2023/05/23 05:01:26;;;;;;;20.80;14.60;;;17.60;99.90;;;;;;4975143;28;20642;-72
2023/05/23 05:03:52;;;;;;;24.70;15.87;;;17.70;99.90;;;;;;4974215;28;20175;-71
2023/05/23 05:06:18;;;;;;;23.00;14.43;;;17.70;99.90;;;;;;4973515;28;20453;-73
2023/05/23 05:08:43;;;;;;;21.60;14.60;;;17.70;99.90;;;;;;4961455;28;20213;-73
2023/05/23 05:11:09;;;;;;;21.70;14.60;;;17.80;99.90;;;;;;4954957;29;20173;-73
2023/05/23 05:13:35;;;;;;;19.57;13.47;;;17.90;99.90;;;;;;4955226;29;20227;-71
2023/05/23 05:16:01;;;;;;;21.20;15.67;;;17.90;99.90;;;;;;4955430;29;20690;-72
2023/05/23 05:18:27;;;;;;;19.53;13.53;;;18.00;99.90;;;;;;4955609;29;20375;-72
2023/05/23 05:20:53;;;;;;;15.60;12.73;;;18.10;99.90;;;;;;4984811;28;20441;-70
2023/05/23 05:23:19;;;;;;;15.80;13.10;;;18.10;99.90;;;;;;4973967;28;20466;-71
2023/05/23 05:25:45;;;;;;;17.20;13.30;;;18.10;99.90;;;;;;4974475;28;20192;-70
2023/05/23 05:28:11;;;;;;;19.67;12.57;;;18.10;99.90;;;;;;4974380;28;20509;-70
2023/05/23 05:30:37;;;;;;;18.30;14.17;;;18.20;99.90;;;;;;4957041;28;20176;-71
2023/05/23 05:33:03;;;;;;;20.17;13.60;;;18.20;99.90;;;;;;4973226;28;20168;-70
2023/05/23 05:35:33;;;;;;;23.93;14.00;;;18.20;99.90;;;;;;4956846;28;20924;-69
2023/05/23 05:37:59;;;;;;;21.67;14.03;;;18.20;99.90;;;;;;4974164;28;20424;-69
2023/05/23 05:40:25;;;;;;;22.03;13.67;;;18.20;99.90;;;;;;4974576;28;20555;-71
2023/05/23 05:42:51;;;;;;;17.97;13.67;;;18.30;99.90;;;;;;4973932;28;20426;-70
2023/05/23 05:45:17;;;;;;;21.77;15.17;;;18.40;99.90;;;;;;4975021;28;20445;-70
2023/05/23 05:47:43;;;;;;;21.47;14.93;;;18.40;99.90;;;;;;4973819;28;20267;-71
2023/05/23 05:50:09;;;;;;;22.13;12.47;;;18.50;99.90;;;;;;4974634;28;20181;-71
2023/05/23 05:52:38;;;;;;;16.30;10.77;;;18.60;99.90;;;;;;4980660;28;20432;-71
2023/05/23 05:55:05;;;;;;;25.20;13.13;;;18.60;99.90;;;;;;4974680;28;20413;-70
2023/05/23 05:57:32;;;;;;;16.80;13.13;;;18.60;99.90;;;;;;4958472;28;20466;-71
2023/05/23 05:59:57;;;;;;;14.47;12.97;;;18.70;99.90;;;;;;4957096;28;20774;-72
2023/05/23 06:02:23;;;;;;;15.93;11.47;;;18.70;99.90;;;;;;4974070;28;20528;-72
2023/05/23 06:04:49;;;;;;;12.40;10.10;;;18.70;99.90;;;;;;4973659;28;20648;-70
2023/05/23 06:07:14;;;;;;;12.80;11.03;;;18.80;99.90;;;;;;4956514;28;20184;-69
2023/05/23 06:09:40;;;;;;;15.50;12.10;;;18.80;99.90;;;;;;4974033;28;20645;-76
2023/05/23 06:12:06;;;;;;;15.60;12.33;;;18.90;99.90;;;;;;4973602;28;20623;-69
2023/05/23 06:14:31;;;;;;;17.63;12.50;;;18.80;99.90;;;;;;4973485;28;20168;-71
2023/05/23 06:16:57;;;;;;;13.60;10.17;;;18.80;99.90;;;;;;4956571;28;20246;-71
2023/05/23 06:19:22;;;;;;;16.67;11.87;;;18.90;99.90;;;;;;4991026;28;20650;-69
2023/05/23 06:21:49;;;;;;;15.10;12.50;;;18.90;99.90;;;;;;4993371;28;20172;-71
2023/05/23 06:24:14;;;;;;;16.23;11.33;;;19.00;99.90;;;;;;4959967;28;20187;-70
2023/05/23 06:26:40;;;;;;;13.10;10.50;;;19.00;99.90;;;;;;4973772;28;20870;-70
2023/05/23 06:29:05;;;;;;;14.13;11.17;;;19.10;99.90;;;;;;4986925;28;20266;-69
2023/05/23 06:31:31;;;;;;;15.90;11.47;;;19.20;99.90;;;;;;4993426;28;20176;-71
2023/05/23 06:33:57;;;;;;;12.83;10.80;;;19.20;99.90;;;;;;4981776;28;20190;-70
2023/05/23 06:36:22;;;;;;;14.93;11.10;;;19.20;99.90;;;;;;4973942;28;20732;-70
2023/05/23 06:38:48;;;;;;;15.67;11.53;;;19.30;99.90;;;;;;4964198;28;20194;-69
2023/05/23 06:41:13;;;;;;;16.93;11.93;;;19.30;99.90;;;;;;4993487;28;20183;-69
2023/05/23 06:43:39;;;;;;;16.40;11.10;;;19.30;99.90;;;;;;4985577;28;20184;-70
2023/05/23 06:46:05;;;;;;;19.10;12.20;;;19.30;99.90;;;;;;4976828;28;20609;-68
2023/05/23 06:48:31;;;;;;;15.77;12.10;;;19.30;99.90;;;;;;4982306;28;20204;-68
2023/05/23 06:50:57;;;;;;;12.93;10.10;;;19.40;99.90;;;;;;4986270;28;20512;-68
2023/05/23 06:53:22;;;;;;;13.43;10.60;;;19.40;99.90;;;;;;4976621;28;20307;-69
2023/05/23 06:55:48;;;;;;;16.90;11.70;;;19.50;99.90;;;;;;4987190;28;20211;-72
2023/05/23 06:58:13;;;;;;;13.03;10.27;;;19.50;99.90;;;;;;4976485;28;20188;-69
2023/05/23 07:00:39;;;;;;;12.60;10.97;;;19.50;99.90;;;;;;4981225;28;20577;-70
2023/05/23 07:03:06;;;;;;;17.00;11.10;;;19.50;99.90;;;;;;4978518;28;20195;-71
2023/05/23 07:05:33;;;;;;;16.03;11.60;;;19.50;99.90;;;;;;4977401;28;20207;-72
2023/05/23 07:07:58;;;;;;;13.77;12.30;;;19.50;99.90;;;;;;4985965;28;20421;-71
2023/05/23 07:10:25;;;;;;;17.50;11.70;;;19.40;99.90;;;;;;4995869;28;20537;-70
2023/05/23 07:12:51;;;;;;;13.97;12.10;;;19.30;99.90;;;;;;4979102;28;20266;-72
2023/05/23 07:15:17;;;;;;;15.37;12.03;;;19.30;99.90;;;;;;4962564;28;20440;-69
2023/05/23 07:17:43;;;;;;;14.30;11.33;;;19.20;99.90;;;;;;4976637;28;20393;-70
2023/05/23 07:20:09;;;;;;;18.97;11.80;;;19.10;99.90;;;;;;4990754;28;20198;-70
2023/05/23 07:22:35;;;;;;;15.63;12.53;;;19.00;99.90;;;;;;4986527;28;20219;-70
2023/05/23 07:25:01;;;;;;;17.60;13.57;;;19.00;99.90;;;;;;4971054;28;20469;-70
2023/05/23 07:27:26;;;;;;;20.33;13.90;;;19.00;99.90;;;;;;4996492;28;20180;-69
2023/05/23 07:29:52;;;;;;;15.07;11.67;;;18.90;99.90;;;;;;4987583;28;20207;-71
2023/05/23 07:32:18;;;;;;;14.80;10.87;;;18.80;99.90;;;;;;4959794;28;20203;-69
2023/05/23 07:34:43;;;;;;;14.57;12.33;;;18.70;99.90;;;;;;4965508;28;20188;-69
2023/05/23 07:37:09;;;;;;;19.70;13.30;;;18.50;99.90;;;;;;4976906;28;20830;-71
2023/05/23 07:39:35;;;;;;;18.27;11.93;;;18.40;99.90;;;;;;4988037;28;20191;-72
2023/05/23 07:42:00;;;;;;;15.60;12.23;;;18.30;99.90;;;;;;4985629;28;20196;-72
2023/05/23 07:44:27;;;;;;;13.03;9.93;;;18.20;99.90;;;;;;4974545;28;20184;-74
2023/05/23 07:46:52;;;;;;;13.57;10.60;;;18.20;99.90;;;;;;4970795;28;21023;-71
2023/05/23 07:49:18;;;;;;;16.13;11.13;;;18.20;99.90;;;;;;4976300;28;20497;-73
2023/05/23 07:51:44;;;;;;;13.10;9.50;;;18.30;99.90;;;;;;4976678;28;20169;-74
2023/05/23 07:54:09;;;;;;;12.00;9.73;;;18.40;99.90;;;;;;4974924;28;20176;-69
2023/05/23 07:56:37;;;;;;;12.30;9.87;;;18.40;99.90;;;;;;4975640;28;20192;-70
2023/05/23 07:59:03;;;;;;;12.67;8.30;;;18.60;99.90;;;;;;4976377;28;20172;-72
2023/05/23 08:01:28;;;;;;;14.17;8.57;;;18.80;99.90;;;;;;4976446;28;20766;-72
2023/05/23 08:03:54;;;;;;;11.00;9.20;;;19.00;99.90;;;;;;4976034;28;20172;-69
2023/05/23 08:06:20;;;;;;;10.77;8.77;;;19.30;99.90;;;;;;4976344;28;20197;-71
2023/05/23 08:08:45;;;;;;;9.60;7.80;;;19.60;99.90;;;;;;4974935;28;20208;-70
2023/05/23 08:11:11;;;;;;;9.20;7.33;;;20.00;99.90;;;;;;4976357;28;20172;-75
2023/05/23 08:13:36;;;;;;;8.63;6.50;;;20.30;99.90;;;;;;4975774;28;20196;-71
2023/05/23 08:16:02;;;;;;;10.03;6.43;;;20.60;99.90;;;;;;4976317;28;20196;-71
2023/05/23 08:18:29;;;;;;;9.40;8.37;;;20.80;99.90;;;;;;4976159;28;20733;-70
2023/05/23 08:20:55;;;;;;;10.27;7.87;;;20.80;99.90;;;;;;4976241;28;20211;-67
2023/05/23 08:23:21;;;;;;;8.37;7.50;;;20.80;99.90;;;;;;4975610;28;20435;-66
2023/05/23 08:25:47;;;;;;;9.37;8.37;;;20.80;99.90;;;;;;4975823;28;20689;-69
2023/05/23 08:28:12;;;;;;;10.03;6.80;;;20.60;99.90;;;;;;4976061;28;20456;-65
2023/05/23 08:30:38;;;;;;;8.50;7.67;;;20.60;99.90;;;;;;4975938;28;20193;-66
2023/05/23 08:33:03;;;;;;;7.90;6.63;;;20.70;99.90;;;;;;4975846;28;20171;-67
2023/05/23 08:35:34;;;;;;;7.60;6.80;;;20.80;99.90;;;;;;4974791;28;20275;-67
2023/05/23 08:38:20;;;;;;;7.87;6.97;;;20.90;99.90;;;;;;4975984;28;20231;-67
2023/05/23 08:40:53;;;;;;;7.60;6.90;;;21.10;99.90;;;;;;4976277;28;20378;-68
2023/05/23 08:43:19;;;;;;;8.43;6.73;;;21.10;99.90;;;;;;4974379;28;20506;-66
2023/05/23 08:45:45;;;;;;;9.50;7.90;;;21.00;99.90;;;;;;4974460;28;20482;-66
2023/05/23 08:48:14;;;;;;;8.03;7.20;;;21.10;99.90;;;;;;4975749;28;20279;-67
2023/05/23 08:50:41;;;;;;;8.93;7.23;;;20.90;99.90;;;;;;4975502;28;20490;-67
2023/05/23 08:53:09;;;;;;;9.10;6.43;;;20.80;99.90;;;;;;4975399;28;20379;-67
2023/05/23 08:55:37;;;;;;;10.13;8.10;;;20.80;99.90;;;;;;4975266;28;20800;-67
2023/05/23 08:58:02;;;;;;;9.37;7.20;;;20.80;99.90;;;;;;4975407;28;20775;-68
2023/05/23 09:00:28;;;;;;;8.83;7.40;;;21.20;99.90;;;;;;4975452;28;20461;-67
2023/05/23 09:02:54;;;;;;;7.13;6.43;;;21.60;99.90;;;;;;4975073;28;20176;-68
2023/05/23 09:05:20;;;;;;;8.60;6.43;;;21.90;99.90;;;;;;4974589;28;20423;-68
2023/05/23 09:07:46;;;;;;;7.23;6.53;;;22.10;99.90;;;;;;4974826;28;20487;-67
2023/05/23 09:10:15;;;;;;;7.80;6.53;;;22.10;99.90;;;;;;4974717;28;20476;-68
2023/05/23 09:12:42;;;;;;;7.93;7.13;;;22.10;99.90;;;;;;4975503;28;20896;-65
2023/05/23 09:15:09;;;;;;;7.93;7.13;;;21.90;99.90;;;;;;4957620;28;20410;-68
2023/05/23 09:17:36;;;;;;;7.63;6.43;;;21.60;99.90;;;;;;4975171;28;20407;-65
2023/05/23 09:20:10;;;;;;;7.80;7.00;;;21.30;99.90;;;;;;4975026;28;20761;-65
2023/05/23 09:22:36;;;;;;;6.43;5.27;;;21.10;99.90;;;;;;4975150;28;20404;-65
2023/05/23 09:25:02;;;;;;;6.63;5.93;;;21.00;99.90;;;;;;4974611;28;20385;-68
2023/05/23 09:27:27;;;;;;;6.57;5.97;;;21.00;99.90;;;;;;4974924;28;20210;-65
2023/05/23 09:29:53;;;;;;;7.00;5.97;;;21.00;99.90;;;;;;4974961;28;20206;-68
2023/05/23 09:32:20;;;;;;;6.87;6.17;;;20.90;99.90;;;;;;4975136;28;20785;-66
2023/05/23 09:34:58;;;;;;;6.30;5.00;;;20.80;99.90;;;;;;4974535;28;20529;-69
2023/05/23 09:37:45;;;;;;;6.77;6.03;;;20.80;99.90;;;;;;4957610;28;20413;-65
2023/05/23 09:40:13;;;;;;;11.00;7.40;;;20.60;99.90;;;;;;4974931;28;20520;-65
2023/05/23 09:42:46;;;;;;;6.10;5.50;;;20.50;99.90;;;;;;4957568;28;20398;-67
2023/05/23 09:45:13;;;;;;;6.43;5.53;;;20.30;99.90;;;;;;4974221;28;20765;-66
2023/05/23 09:47:38;;;;;;;7.20;6.03;;;20.30;99.90;;;;;;4974292;28;20424;-68
2023/05/23 09:50:05;;;;;;;9.00;5.97;;;20.20;99.90;;;;;;4974490;28;20878;-68
2023/05/23 09:52:37;;;;;;;6.60;5.93;;;20.20;99.90;;;;;;4957424;28;20267;-68
2023/05/23 09:55:03;;;;;;;5.60;5.10;;;20.10;99.90;;;;;;4956890;28;20812;-67
2023/05/23 09:57:30;;;;;;;7.17;6.57;;;20.20;99.90;;;;;;4957243;28;20804;-68
2023/05/23 09:59:59;;;;;;;9.43;7.83;;;20.20;99.90;;;;;;4974467;28;20407;-67
2023/05/23 10:02:59;;;;;;;6.53;5.93;;;20.20;99.90;;;;;;4958018;28;20444;-66
2023/05/23 10:05:30;;;;;;;8.77;7.00;;;20.10;99.90;;;;;;4954704;28;20433;-66
2023/05/23 10:08:03;;;;;;;6.17;5.47;;;19.90;99.90;;;;;;4974207;28;20441;-68
2023/05/23 10:10:32;;;;;;;7.23;4.50;;;19.80;99.90;;;;;;4974493;28;20412;-65
2023/05/23 10:13:01;;;;;;;5.90;5.30;;;19.70;99.90;;;;;;4974448;28;20409;-65
2023/05/23 10:15:31;;;;;;;7.10;6.17;;;19.60;99.90;;;;;;4974218;28;20439;-67
2023/05/23 10:18:05;;;;;;;5.53;5.00;;;19.60;99.90;;;;;;4974659;28;20405;-70
2023/05/23 10:20:33;;;;;;;6.63;5.07;;;19.70;99.90;;;;;;4976573;28;20387;-64
2023/05/23 10:23:00;;;;;;;5.77;5.17;;;20.00;99.90;;;;;;4978399;28;20415;-66
2023/05/23 10:25:26;;;;;;;6.83;4.63;;;20.10;99.90;;;;;;4976904;28;20406;-66
2023/05/23 10:27:57;;;;;;;5.50;5.00;;;20.30;99.90;;;;;;4976937;28;20413;-67
2023/05/23 10:30:24;;;;;;;7.27;5.50;;;20.50;99.90;;;;;;4978493;28;20423;-66
2023/05/23 10:32:51;;;;;;;6.80;5.90;;;20.80;99.90;;;;;;4978453;28;20378;-66
2023/05/23 10:35:32;;;;;;;4.90;4.40;;;20.90;99.90;;;;;;4977738;28;20437;-68
2023/05/23 10:38:12;;;;;;;5.97;4.80;;;21.00;99.90;;;;;;4976996;28;20391;-69
2023/05/23 10:40:59;;;;;;;5.67;4.53;;;20.80;99.90;;;;;;4977024;28;20411;-69
2023/05/23 10:43:43;;;;;;;5.13;4.63;;;20.80;99.90;;;;;;4977555;28;20412;-67
2023/05/23 10:46:11;;;;;;;5.77;4.97;;;20.70;99.90;;;;;;4976680;28;20789;-69
2023/05/23 10:48:43;;;;;;;6.40;5.27;;;20.80;99.90;;;;;;4978024;28;20495;-67
2023/05/23 10:51:11;;;;;;;4.00;3.70;;;20.70;99.90;;;;;;4977984;28;20421;-69
2023/05/23 10:53:38;;;;;;;6.40;4.43;;;20.80;99.90;;;;;;4977486;28;20460;-67
2023/05/23 10:56:09;;;;;;;5.97;4.73;;;20.70;99.90;;;;;;4977440;28;20435;-69
2023/05/23 10:58:37;;;;;;;4.83;4.23;;;20.70;99.90;;;;;;4978068;28;20760;-67
2023/05/23 11:01:08;;;;;;;4.30;3.83;;;20.70;99.90;;;;;;4977654;28;20397;-69
2023/05/23 11:03:43;;;;;;;5.13;4.73;;;20.70;99.90;;;;;;4977283;28;20398;-66
2023/05/23 11:06:46;;;;;;;4.97;4.47;;;20.80;99.90;;;;;;4977611;28;20744;-67
2023/05/23 11:09:18;;;;;;;5.50;4.47;;;20.80;99.90;;;;;;4974492;28;20954;-67
2023/05/23 11:11:52;;;;;;;8.53;5.00;;;20.80;99.90;;;;;;4977794;28;20416;-66
2023/05/23 11:14:19;;;;;;;5.70;4.80;;;20.90;99.90;;;;;;4977061;28;20444;-67
2023/05/23 11:16:48;;;;;;;5.83;4.10;;;20.90;99.90;;;;;;4959883;28;20436;-67
2023/05/23 11:19:21;;;;;;;4.23;3.93;;;20.90;99.90;;;;;;4977301;28;20388;-66
2023/05/23 11:21:59;;;;;;;4.33;3.90;;;20.70;99.90;;;;;;4977504;28;20418;-67
2023/05/23 11:24:54;;;;;;;6.10;4.60;;;20.70;99.90;;;;;;4976531;28;20804;-68
2023/05/23 11:27:39;;;;;;;3.37;3.07;;;20.70;99.90;;;;;;4977303;28;20516;-67
2023/05/23 11:30:08;;;;;;;4.63;3.60;;;20.70;99.90;;;;;;4959661;28;20466;-67
2023/05/23 11:32:34;;;;;;;5.07;4.27;;;20.80;99.90;;;;;;4976117;28;20862;-66
2023/05/23 11:35:08;;;;;;;4.27;3.43;;;21.00;99.90;;;;;;4976568;28;20412;-64
2023/05/23 11:37:33;;;;;;;4.93;3.33;;;21.10;99.90;;;;;;4977326;28;20399;-66
2023/05/23 11:40:19;;;;;;;4.10;3.80;;;21.10;99.90;;;;;;4977080;28;20791;-68
2023/05/23 11:42:45;;;;;;;4.83;3.90;;;21.20;99.90;;;;;;4976115;28;20697;-68
2023/05/23 11:45:11;;;;;;;5.77;4.50;;;21.20;99.90;;;;;;4976350;28;20802;-67
2023/05/23 11:47:40;;;;;;;3.43;3.13;;;21.30;99.90;;;;;;4976845;28;20390;-64
2023/05/23 11:50:06;;;;;;;3.17;2.97;;;21.50;99.90;;;;;;4959474;28;20212;-68
2023/05/23 11:52:32;;;;;;;4.43;4.03;;;21.50;99.90;;;;;;4976739;28;20915;-65
2023/05/23 11:55:00;;;;;;;4.37;3.73;;;21.70;99.90;;;;;;4976209;28;20502;-67
2023/05/23 11:57:26;;;;;;;4.43;3.43;;;21.90;99.90;;;;;;4976861;28;20403;-65
2023/05/23 11:59:52;;;;;;;4.10;3.40;;;21.90;99.90;;;;;;4959208;28;20402;-68
2023/05/23 12:02:18;;;;;;;3.83;3.30;;;21.80;99.90;;;;;;4976516;28;20412;-67
2023/05/23 12:04:44;;;;;;;3.53;3.23;;;21.80;99.90;;;;;;4976222;28;20415;-68
2023/05/23 12:07:10;;;;;;;4.07;3.70;;;21.90;99.90;;;;;;4976790;28;20431;-66
2023/05/23 12:09:45;;;;;;;3.50;3.20;;;22.00;99.90;;;;;;4976483;28;20207;-68
2023/05/23 12:12:12;;;;;;;4.67;3.60;;;22.40;99.90;;;;;;4975339;28;20697;-66
2023/05/23 12:14:43;;;;;;;4.40;3.53;;;22.70;99.90;;;;;;4976092;28;20440;-67
2023/05/23 12:17:12;;;;;;;3.97;3.57;;;22.90;99.90;;;;;;4976419;28;20418;-67
2023/05/23 12:19:38;;;;;;;3.57;3.27;;;22.90;99.10;;;;;;4976309;28;20395;-65
2023/05/23 12:22:07;;;;;;;3.40;3.20;;;22.90;98.90;;;;;;4976198;28;20485;-66
2023/05/23 12:24:33;;;;;;;5.07;4.67;;;22.90;99.50;;;;;;4975631;28;20390;-68
2023/05/23 12:27:01;;;;;;;4.00;3.70;;;23.00;98.70;;;;;;4975968;28;20430;-66
2023/05/23 12:29:34;;;;;;;4.00;3.70;;;23.00;97.60;;;;;;4976041;28;20200;-67
2023/05/23 12:32:04;;;;;;;4.70;3.57;;;23.10;98.50;;;;;;4976190;28;20432;-67
2023/05/23 12:34:30;;;;;;;5.60;3.60;;;23.30;98.00;;;;;;4975899;28;20422;-68
2023/05/23 12:37:02;;;;;;;2.93;2.63;;;23.20;97.90;;;;;;4974470;28;20410;-64
2023/05/23 12:39:28;;;;;;;3.50;3.10;;;23.30;97.70;;;;;;4976014;28;20243;-69
2023/05/23 12:42:05;;;;;;;4.23;3.83;;;23.20;98.20;;;;;;4974602;28;20412;-66
2023/05/23 12:44:31;;;;;;;3.57;3.27;;;23.40;98.60;;;;;;4975557;28;20415;-68
2023/05/23 12:46:57;;;;;;;3.27;2.90;;;23.40;97.20;;;;;;4975888;28;20489;-68
2023/05/23 12:49:22;;;;;;;3.10;2.80;;;23.50;97.50;;;;;;4975718;28;20207;-68
2023/05/23 12:51:48;;;;;;;3.77;3.47;;;23.50;97.00;;;;;;4975849;28;20180;-68
2023/05/23 12:54:14;;;;;;;3.13;2.70;;;23.50;97.00;;;;;;4973881;28;20267;-66
2023/05/23 12:56:39;;;;;;;3.50;3.13;;;23.50;97.20;;;;;;4975460;28;20586;-67
2023/05/23 12:59:05;;;;;;;3.77;3.47;;;23.50;96.90;;;;;;4975643;28;20191;-68
2023/05/23 13:01:33;;;;;;;4.10;3.70;;;23.40;96.50;;;;;;4975579;28;20607;-67
2023/05/23 13:03:59;;;;;;;3.00;2.80;;;23.30;97.50;;;;;;4974917;28;20176;-67
2023/05/23 13:06:25;;;;;;;4.17;2.83;;;23.30;97.10;;;;;;4957889;28;20450;-68
2023/05/23 13:08:53;;;;;;;2.87;2.67;;;23.20;97.00;;;;;;4975479;28;20610;-66
2023/05/23 13:11:19;;;;;;;2.90;2.60;;;23.20;97.50;;;;;;4975326;28;20383;-67
2023/05/23 13:13:45;;;;;;;3.07;2.77;;;23.30;98.10;;;;;;4957571;28;20511;-66
2023/05/23 13:16:11;;;;;;;2.63;2.43;;;23.40;97.50;;;;;;4975557;28;20464;-70
2023/05/23 13:18:37;;;;;;;3.03;2.83;;;23.50;96.90;;;;;;4960889;28;20823;-66
2023/05/23 13:21:03;;;;;;;3.10;2.70;;;23.30;96.50;;;;;;4975281;28;20187;-67
2023/05/23 13:23:29;;;;;;;3.23;2.93;;;23.00;96.40;;;;;;4974897;28;20555;-65
2023/05/23 13:25:56;;;;;;;3.23;2.93;;;22.70;96.80;;;;;;4975375;28;20242;-67
2023/05/23 13:28:23;;;;;;;2.60;2.40;;;22.40;97.40;;;;;;4974721;28;20471;-68
2023/05/23 13:30:49;;;;;;;2.50;2.30;;;22.10;98.30;;;;;;4974843;28;20415;-67
2023/05/23 13:33:15;;;;;;;2.50;2.30;;;21.80;98.60;;;;;;4974746;28;20462;-68
2023/05/23 13:35:41;;;;;;;2.43;2.23;;;21.80;99.30;;;;;;4957480;28;20439;-67
2023/05/23 13:38:06;;;;;;;2.67;2.47;;;21.70;98.70;;;;;;4990511;28;20172;-69
2023/05/23 13:40:32;;;;;;;3.77;3.40;;;21.60;98.90;;;;;;4982073;28;20186;-69
2023/05/23 13:42:58;;;;;;;2.10;2.00;;;21.70;99.00;;;;;;4974872;28;20183;-67
2023/05/23 13:45:23;;;;;;;1.90;1.80;;;21.80;98.90;;;;;;4975204;28;20192;-74
2023/05/23 13:47:49;;;;;;;2.50;2.07;;;21.90;99.20;;;;;;4991526;28;20179;-68
2023/05/23 13:50:15;;;;;;;1.97;1.87;;;22.00;98.80;;;;;;4987179;28;20200;-69
2023/05/23 13:52:41;;;;;;;2.13;1.93;;;22.00;98.60;;;;;;4974036;28;20642;-71
2023/05/23 13:55:07;;;;;;;2.90;2.70;;;21.90;98.70;;;;;;4978020;28;20492;-70
2023/05/23 13:57:33;;;;;;;2.20;2.00;;;21.90;98.90;;;;;;4994167;28;20175;-70
2023/05/23 13:59:59;;;;;;;3.40;3.20;;;21.80;98.90;;;;;;4991431;28;20428;-68
2023/05/23 14:02:25;;;;;;;2.50;2.30;;;21.80;99.40;;;;;;4957308;28;20183;-70
2023/05/23 14:04:51;;;;;;;2.87;2.57;;;21.80;98.80;;;;;;4974841;28;20172;-68
2023/05/23 14:07:17;;;;;;;2.23;2.13;;;21.80;99.10;;;;;;4991166;28;20436;-68
2023/05/23 14:09:43;;;;;;;2.40;2.20;;;21.90;99.30;;;;;;4993661;28;20211;-66
2023/05/23 14:12:09;;;;;;;2.60;2.43;;;22.00;99.90;;;;;;4974920;28;20409;-65
2023/05/23 14:14:35;;;;;;;1.73;1.63;;;22.20;99.70;;;;;;4974202;28;20165;-67
2023/05/23 14:17:00;;;;;;;2.67;2.50;;;22.10;98.70;;;;;;4975787;28;20961;-66
2023/05/23 14:19:26;;;;;;;2.10;2.00;;;21.90;98.80;;;;;;4974435;28;20176;-69
2023/05/23 14:21:52;;;;;;;1.97;1.87;;;21.80;98.40;;;;;;4974555;28;20184;-66
2023/05/23 14:24:17;;;;;;;2.37;2.17;;;21.80;98.40;;;;;;4974315;28;20207;-69
2023/05/23 14:26:43;;;;;;;2.27;2.17;;;21.60;98.50;;;;;;4987262;28;20216;-68
2023/05/23 14:29:08;;;;;;;2.37;2.27;;;21.60;98.90;;;;;;4973915;28;20199;-69
2023/05/23 14:31:34;;;;;;;1.93;1.83;;;21.60;99.00;;;;;;4986318;28;20211;-67
2023/05/23 14:34:00;;;;;;;2.10;1.90;;;21.50;98.50;;;;;;4993381;28;20691;-66
2023/05/23 14:36:27;;;;;;;1.80;1.57;;;21.50;98.40;;;;;;4983107;28;20223;-67
2023/05/23 14:38:53;;;;;;;2.20;2.10;;;21.50;99.00;;;;;;4974131;28;20180;-67
2023/05/23 14:41:18;;;;;;;2.47;2.27;;;21.60;99.60;;;;;;4982586;28;20422;-68
2023/05/23 14:43:44;;;;;;;2.10;1.97;;;21.60;99.40;;;;;;4993122;28;20515;-68
2023/05/23 14:46:10;;;;;;;1.90;1.80;;;21.70;99.60;;;;;;4986323;28;20196;-68
2023/05/23 14:48:36;;;;;;;1.97;1.70;;;21.70;98.10;;;;;;4974011;28;20197;-68
2023/05/23 14:51:02;;;;;;;2.50;2.30;;;21.60;98.30;;;;;;4973832;28;20766;-70
2023/05/23 14:53:27;;;;;;;1.93;1.83;;;21.50;98.10;;;;;;4973808;28;20426;-67
2023/05/23 14:55:53;;;;;;;1.80;1.70;;;21.50;97.70;;;;;;4956260;28;20210;-68
2023/05/23 14:58:21;;;;;;;2.20;1.77;;;21.40;97.70;;;;;;4956582;28;20181;-67
2023/05/23 15:00:47;;;;;;;1.77;1.60;;;21.40;97.80;;;;;;4987665;28;20181;-69
2023/05/23 15:03:13;;;;;;;2.80;2.60;;;21.50;98.10;;;;;;4973612;28;20405;-69
2023/05/23 15:05:38;;;;;;;1.70;1.60;;;21.50;98.90;;;;;;4973809;28;20447;-69
2023/05/23 15:08:04;;;;;;;1.83;1.73;;;21.50;98.60;;;;;;4960508;28;20429;-67
2023/05/23 15:10:30;;;;;;;1.93;1.80;;;21.40;97.90;;;;;;4977419;28;20171;-67
2023/05/23 15:12:55;;;;;;;2.10;1.90;;;21.40;98.70;;;;;;4977321;28;20180;-68
2023/05/23 15:15:22;;;;;;;2.70;2.50;;;21.20;98.50;;;;;;4959710;28;20199;-66
2023/05/23 15:17:49;;;;;;;2.90;1.90;;;21.00;98.90;;;;;;4967138;28;20174;-66
2023/05/23 15:20:16;;;;;;;1.77;1.67;;;21.00;99.40;;;;;;4977126;28;20425;-67
2023/05/23 15:22:41;;;;;;;1.77;1.67;;;20.90;98.60;;;;;;4975226;28;20429;-67
2023/05/23 15:25:08;;;;;;;1.90;1.80;;;20.80;98.60;;;;;;4983520;28;20964;-68
2023/05/23 15:27:34;;;;;;;1.87;1.77;;;20.80;98.80;;;;;;4990893;28;20192;-67
2023/05/23 15:30:01;;;;;;;2.17;2.07;;;20.80;98.80;;;;;;4996613;28;20500;-66
2023/05/23 15:32:26;;;;;;;2.10;1.90;;;20.80;99.60;;;;;;4983567;28;20447;-69
2023/05/23 15:34:52;;;;;;;2.97;2.63;;;20.70;99.30;;;;;;4976576;28;20407;-67
2023/05/23 15:37:17;;;;;;;1.90;1.80;;;20.70;99.70;;;;;;4986246;28;20218;-65
2023/05/23 15:39:43;;;;;;;2.10;2.00;;;20.70;99.80;;;;;;4982465;28;20195;-67
2023/05/23 15:42:09;;;;;;;2.00;1.90;;;20.70;99.90;;;;;;4977241;28;20192;-66
2023/05/23 15:44:34;;;;;;;2.13;2.03;;;20.70;99.90;;;;;;4976293;28;20180;-68
2023/05/23 15:47:00;;;;;;;2.43;2.23;;;20.60;99.90;;;;;;4982964;28;20199;-65
2023/05/23 15:49:26;;;;;;;3.00;2.80;;;20.50;99.90;;;;;;4989329;28;20228;-68
2023/05/23 15:51:52;;;;;;;2.50;2.20;;;20.50;99.90;;;;;;4981302;28;20226;-65
2023/05/23 15:54:18;;;;;;;2.50;2.10;;;20.50;99.90;;;;;;4978390;28;20183;-66
2023/05/23 15:56:44;;;;;;;2.60;2.17;;;20.40;99.90;;;;;;4991292;28;21009;-66
2023/05/23 15:59:10;;;;;;;2.97;2.40;;;20.40;99.90;;;;;;4976728;28;20309;-67
2023/05/23 16:01:36;;;;;;;2.43;2.30;;;20.40;99.90;;;;;;4978521;28;20179;-68
2023/05/23 16:04:02;;;;;;;2.30;2.10;;;20.30;99.90;;;;;;4976282;28;20789;-68
2023/05/23 16:06:28;;;;;;;2.20;2.10;;;20.20;99.90;;;;;;4975858;28;20435;-68
2023/05/23 16:08:54;;;;;;;2.77;2.57;;;20.10;99.90;;;;;;4976204;28;20779;-66
2023/05/23 16:11:20;;;;;;;2.10;1.97;;;20.00;99.90;;;;;;4976438;28;20411;-66
2023/05/23 16:13:46;;;;;;;2.30;2.20;;;19.90;99.90;;;;;;4975793;28;20515;-65
2023/05/23 16:16:12;;;;;;;2.23;2.13;;;19.90;99.90;;;;;;4958765;28;20988;-70
2023/05/23 16:18:37;;;;;;;2.63;2.40;;;19.90;99.90;;;;;;4991836;28;20427;-66
2023/05/23 16:21:03;;;;;;;2.67;2.10;;;19.90;99.90;;;;;;4963977;28;20186;-68
2023/05/23 16:23:29;;;;;;;4.30;2.60;;;19.90;99.90;;;;;;4989985;28;20608;-64
2023/05/23 16:25:55;;;;;;;2.47;2.27;;;20.00;99.90;;;;;;4995453;28;20720;-69
2023/05/23 16:28:21;;;;;;;2.27;2.07;;;19.90;99.90;;;;;;4982079;28;20485;-68
2023/05/23 16:30:46;;;;;;;2.60;2.40;;;19.80;99.90;;;;;;4975919;28;20535;-68
2023/05/23 16:33:12;;;;;;;2.83;2.63;;;19.80;99.90;;;;;;4975219;28;20394;-65
2023/05/23 16:35:38;;;;;;;3.13;2.47;;;19.70;99.90;;;;;;4975879;28;20242;-66
2023/05/23 16:38:03;;;;;;;2.67;2.20;;;19.60;99.90;;;;;;4980565;28;20231;-66
2023/05/23 16:40:29;;;;;;;2.87;2.67;;;19.50;99.90;;;;;;4975112;28;20234;-67
2023/05/23 16:42:55;;;;;;;2.87;2.67;;;19.50;99.90;;;;;;4965627;28;20642;-68
2023/05/23 16:45:20;;;;;;;3.60;3.40;;;19.40;99.90;;;;;;4975684;28;20246;-69